Time;durP1;ratioP1;P1;durP2;ratioP2;P2;SDS_P1;SDS_P2;PMS_P1;PMS_P2;Temp;Humidity;BMP_temperature;BMP_pressure;BME280_temperature;BME280_humidity;BME280_pressure;Samples;Min_cycle;Max_cycle;Signal;HPM_P1;HPM_P2
2022/12/05 00:01:20;;;;;;;20.63;9.07;;;;;;;0.62;100.00;97077.00;5028046;28;20503;-58
2022/12/05 00:03:48;;;;;;;18.13;9.15;;;;;;;0.64;100.00;97069.66;5028526;28;20099;-58
2022/12/05 00:06:15;;;;;;;17.98;8.35;;;;;;;0.69;100.00;97068.22;5028963;28;20104;-59
2022/12/05 00:08:42;;;;;;;22.25;9.50;;;;;;;0.76;100.00;97072.59;5028542;28;20056;-54
2022/12/05 00:11:30;;;;;;;19.85;8.93;;;;;;;0.89;100.00;97071.81;5028501;28;20045;-57
2022/12/05 00:13:58;;;;;;;21.08;8.85;;;;;;;0.82;100.00;97076.31;5028252;28;20049;-59
2022/12/05 00:16:27;;;;;;;17.75;7.68;;;;;;;0.83;100.00;97067.28;5021871;28;20445;-58
2022/12/05 00:18:53;;;;;;;19.17;8.82;;;;;;;0.64;100.00;97067.00;5014377;28;20045;-57
2022/12/05 00:21:22;;;;;;;17.80;8.27;;;;;;;0.55;100.00;97068.13;5028045;28;20502;-59
2022/12/05 00:23:50;;;;;;;16.95;8.07;;;;;;;0.51;100.00;97065.03;5028711;28;20038;-59
2022/12/05 00:26:17;;;;;;;17.38;7.53;;;;;;;0.64;100.00;97061.66;5028279;28;20045;-58
2022/12/05 00:28:44;;;;;;;16.00;7.10;;;;;;;0.68;100.00;97063.91;5028096;28;20045;-59
2022/12/05 00:31:16;;;;;;;16.20;7.40;;;;;;;0.81;100.00;97071.97;5027913;28;20485;-54
2022/12/05 00:33:44;;;;;;;15.48;7.72;;;;;;;0.84;100.00;97068.09;5028365;28;20072;-56
2022/12/05 00:36:15;;;;;;;15.88;7.53;;;;;;;0.85;100.00;97067.91;5028372;28;20487;-55
2022/12/05 00:38:42;;;;;;;13.73;7.68;;;;;;;0.92;100.00;97083.94;5028216;28;20133;-57
2022/12/05 00:41:12;;;;;;;15.73;6.97;;;;;;;0.85;100.00;97077.75;5027809;28;20470;-59
2022/12/05 00:43:39;;;;;;;15.77;7.22;;;;;;;0.74;100.00;97087.13;5028231;28;20045;-58
2022/12/05 00:46:08;;;;;;;16.50;7.00;;;;;;;0.83;100.00;97093.94;5024145;28;20060;-60
2022/12/05 00:48:36;;;;;;;15.02;6.57;;;;;;;0.95;100.00;97096.88;5011759;28;20223;-58
2022/12/05 00:51:09;;;;;;;15.95;6.90;;;;;;;0.90;100.00;97083.31;5027955;28;20124;-57
2022/12/05 00:53:35;;;;;;;14.75;7.28;;;;;;;0.92;100.00;97070.59;5028238;28;20040;-59
2022/12/05 00:56:08;;;;;;;16.45;6.80;;;;;;;0.73;100.00;97080.13;5028356;28;20053;-57
2022/12/05 00:58:35;;;;;;;15.88;7.80;;;;;;;0.65;100.00;97086.44;5028441;28;20272;-59
2022/12/05 01:01:14;;;;;;;14.48;6.97;;;;;;;0.62;100.00;97090.31;5027510;28;20045;-58
2022/12/05 01:03:42;;;;;;;19.17;7.50;;;;;;;0.64;100.00;97093.63;5028510;28;20144;-59
2022/12/05 01:06:09;;;;;;;14.60;6.38;;;;;;;0.68;100.00;97091.41;5027734;28;20045;-59
2022/12/05 01:08:36;;;;;;;16.73;7.88;;;;;;;0.73;100.00;97090.78;5027571;28;20483;-57
2022/12/05 01:11:04;;;;;;;18.58;7.78;;;;;;;0.84;100.00;97097.41;5027105;28;20051;-57
2022/12/05 01:13:31;;;;;;;15.63;7.53;;;;;;;0.78;100.00;97097.19;5027336;28;20558;-59
2022/12/05 01:15:58;;;;;;;15.35;6.97;;;;;;;0.85;100.00;97107.06;5024100;28;20133;-58
2022/12/05 01:18:25;;;;;;;16.80;7.63;;;;;;;0.77;100.00;97110.69;5009336;28;20061;-57
2022/12/05 01:20:52;;;;;;;16.50;7.45;;;;;;;0.82;100.00;97108.28;5026612;28;20493;-55
2022/12/05 01:23:20;;;;;;;13.38;6.50;;;;;;;0.86;100.00;97114.03;5027850;28;20042;-58
2022/12/05 01:25:49;;;;;;;12.85;6.70;;;;;;;0.85;100.00;97120.41;5027136;28;20120;-56
2022/12/05 01:28:17;;;;;;;14.27;7.15;;;;;;;0.83;100.00;97115.25;5027397;28;20053;-59
2022/12/05 01:30:47;;;;;;;14.63;7.10;;;;;;;0.87;100.00;97126.34;5026910;28;20033;-59
2022/12/05 01:33:13;;;;;;;13.30;6.32;;;;;;;0.77;100.00;97122.19;5021701;28;20092;-60
2022/12/05 01:35:41;;;;;;;14.68;7.63;;;;;;;0.80;100.00;97120.97;5007427;28;20498;-57
2022/12/05 01:38:10;;;;;;;14.55;6.53;;;;;;;0.78;100.00;97112.38;5007401;28;20392;-59
2022/12/05 01:40:37;;;;;;;14.63;7.05;;;;;;;0.80;100.00;97112.19;5019487;28;20120;-58
2022/12/05 01:43:09;;;;;;;15.88;7.47;;;;;;;0.82;100.00;97112.78;5026701;28;20051;-57
2022/12/05 01:45:41;;;;;;;14.85;6.80;;;;;;;0.84;100.00;97122.22;5026829;28;20037;-59
2022/12/05 01:48:17;;;;;;;;;;;;;;;0.95;100.00;97130.72;5024088;28;20037;-56
2022/12/05 01:50:46;;;;;;;14.10;6.38;;;;;;;0.88;100.00;97126.16;5025756;28;19924;-57
2022/12/05 01:53:13;;;;;;;12.23;6.18;;;;;;;0.97;100.00;97118.00;5026768;28;20038;-58
2022/12/05 01:55:40;;;;;;;12.85;6.47;;;;;;;0.85;100.00;97128.41;5026699;28;20038;-58
2022/12/05 01:58:08;;;;;;;14.13;7.43;;;;;;;0.81;100.00;97129.81;5026536;28;20103;-58
2022/12/05 02:00:39;;;;;;;14.70;7.07;;;;;;;0.72;100.00;97142.44;5026211;28;20038;-59
2022/12/05 02:03:10;;;;;;;16.50;7.65;;;;;;;0.54;100.00;97146.44;5023779;28;20092;-55
2022/12/05 02:05:37;;;;;;;15.57;7.95;;;;;;;0.43;100.00;97160.25;5007006;28;20070;-59
2022/12/05 02:08:06;;;;;;;16.95;7.63;;;;;;;0.51;100.00;97155.63;5006872;28;20046;-59
2022/12/05 02:10:47;;;;;;;15.48;7.57;;;;;;;0.54;100.00;97149.09;5013611;28;20048;-59
2022/12/05 02:13:37;;;;;;;14.02;7.50;;;;;;;0.51;100.00;97152.13;5026527;28;20133;-58
2022/12/05 02:16:30;;;;;;;14.55;7.28;;;;;;;0.56;100.00;97143.56;5026715;28;20053;-59
2022/12/05 02:19:13;;;;;;;13.35;6.82;;;;;;;0.64;100.00;97148.75;5021334;28;20045;-58
2022/12/05 02:22:07;;;;;;;15.27;7.22;;;;;;;0.54;100.00;97157.09;5006478;28;20084;-57
2022/12/05 02:24:44;;;;;;;18.90;8.45;;;;;;;0.57;100.00;97158.53;5007178;28;20038;-56
2022/12/05 02:27:17;;;;;;;18.63;8.40;;;;;;;0.57;100.00;97156.72;5008464;28;20045;-57
2022/12/05 02:30:06;;;;;;;16.35;7.43;;;;;;;0.58;100.00;97162.84;5006728;28;20076;-56
2022/12/05 02:32:41;;;;;;;15.82;8.15;;;;;;;0.56;100.00;97156.91;5006506;28;20296;-56
2022/12/05 02:35:36;;;;;;;20.65;8.65;;;;;;;0.62;100.00;97161.44;5006633;28;20042;-56
2022/12/05 02:38:20;;;;;;;15.88;7.88;;;;;;;0.56;100.00;97168.38;5018841;28;20092;-58
2022/12/05 02:40:46;;;;;;;16.38;7.90;;;;;;;0.60;100.00;97190.13;5025752;28;20330;-58
2022/12/05 02:43:36;;;;;;;17.17;7.90;;;;;;;0.72;100.00;97199.25;5026166;28;20128;-58
2022/12/05 02:46:13;;;;;;;17.73;8.70;;;;;;;0.77;100.00;97186.16;5025319;28;20045;-57
2022/12/05 02:48:42;;;;;;;17.35;8.23;;;;;;;0.83;100.00;97186.41;5009936;28;20484;-57
2022/12/05 02:51:11;;;;;;;18.52;8.02;;;;;;;0.97;100.00;97174.00;5025640;28;20099;-55
2022/12/05 02:53:40;;;;;;;18.05;8.05;;;;;;;1.00;100.00;97181.63;5011089;28;20045;-58
2022/12/05 02:56:07;;;;;;;17.52;7.90;;;;;;;0.89;100.00;97197.13;5005298;28;20033;-59
2022/12/05 02:58:43;;;;;;;16.65;7.47;;;;;;;1.00;100.00;97181.63;5006579;28;20126;-59
2022/12/05 03:01:10;;;;;;;18.73;8.45;;;;;;;0.87;100.00;97201.00;5005844;28;20108;-59
2022/12/05 03:03:36;;;;;;;16.77;7.50;;;;;;;0.77;100.00;97204.00;5006108;28;20046;-57
2022/12/05 03:06:10;;;;;;;17.25;8.32;;;;;;;0.78;100.00;97190.47;5004993;28;20513;-58
2022/12/05 03:08:46;;;;;;;22.30;9.38;;;;;;;0.74;100.00;97201.72;5005065;28;20050;-58
2022/12/05 03:11:14;;;;;;;19.27;8.80;;;;;;;0.73;100.00;97213.38;5017675;28;20505;-58
2022/12/05 03:13:47;;;;;;;19.77;9.55;;;;;;;0.72;100.00;97209.91;5025432;28;20045;-57
2022/12/05 03:16:22;;;;;;;18.00;7.95;;;;;;;0.78;100.00;97197.66;5025942;28;20322;-59
2022/12/05 03:19:02;;;;;;;23.42;9.07;;;;;;;0.97;100.00;97169.50;5021962;28;20042;-59
2022/12/05 03:21:28;;;;;;;19.55;8.13;;;;;;;1.00;100.00;97162.94;5005668;28;20541;-57
2022/12/05 03:24:12;;;;;;;20.85;8.07;;;;;;;1.11;100.00;97170.38;5005644;28;20038;-58
2022/12/05 03:26:52;;;;;;;20.00;7.88;;;;;;;1.14;100.00;97164.66;5003267;28;20684;-56
2022/12/05 03:29:35;;;;;;;23.27;8.63;;;;;;;1.15;100.00;97155.63;5004126;28;20474;-59
2022/12/05 03:32:07;;;;;;;19.75;8.27;;;;;;;1.05;100.00;97168.50;5006174;28;20042;-59
2022/12/05 03:35:16;;;;;;;18.15;7.55;;;;;;;1.02;100.00;97161.72;5020775;28;20383;-59
2022/12/05 03:37:51;;;;;;;17.83;8.70;;;;;;;1.11;100.00;97166.91;5025746;28;20276;-59
2022/12/05 03:40:28;;;;;;;20.27;8.00;;;;;;;1.04;100.00;97175.69;5023286;28;20489;-56
2022/12/05 03:43:08;;;;;;;20.02;7.80;;;;;;;1.03;100.00;97171.38;5017450;28;20695;-57
2022/12/05 03:46:03;;;;;;;19.45;9.23;;;;;;;1.17;100.00;97166.94;5024816;28;20112;-58
2022/12/05 03:48:39;;;;;;;20.08;9.02;;;;;;;1.15;100.00;97166.31;5024772;28;20093;-57
2022/12/05 03:51:10;;;;;;;16.65;8.18;;;;;;;1.34;100.00;97165.78;5010607;28;20050;-59
2022/12/05 03:54:09;;;;;;;20.67;9.20;;;;;;;1.32;100.00;97176.66;5005629;28;20561;-57
2022/12/05 03:56:42;;;;;;;20.77;8.63;;;;;;;1.22;100.00;97178.88;5008775;28;20293;-59
2022/12/05 03:59:22;;;;;;;19.40;8.88;;;;;;;1.17;100.00;97174.09;5004891;28;20046;-58
2022/12/05 04:01:51;;;;;;;23.88;8.23;;;;;;;1.20;100.00;97172.88;5005449;28;20042;-58
2022/12/05 04:04:27;;;;;;;19.10;7.88;;;;;;;1.23;100.00;97170.69;5005666;28;20042;-58
2022/12/05 04:06:56;;;;;;;20.88;9.45;;;;;;;1.29;100.00;97185.06;5005299;28;20078;-57
2022/12/05 04:09:30;;;;;;;21.65;9.35;;;;;;;1.29;100.00;97187.75;5005775;28;20556;-56
2022/12/05 04:12:01;;;;;;;22.77;9.43;;;;;;;1.25;100.00;97189.16;5009877;28;20041;-57
2022/12/05 04:14:41;;;;;;;16.90;8.52;;;;;;;1.30;100.00;97192.03;5005518;28;20041;-58
2022/12/05 04:17:22;;;;;;;22.00;9.30;;;;;;;1.32;100.00;97195.31;5006806;28;20475;-56
2022/12/05 04:22:40;;;;;;;20.40;8.80;;;;;;;1.35;100.00;97194.94;5027950;28;20042;-56
2022/12/05 04:28:06;;;;;;;23.23;9.15;;;;;;;1.29;100.00;97203.75;5028469;28;20428;-57
2022/12/05 04:30:45;;;;;;;19.58;9.20;;;;;;;1.24;100.00;97211.50;5028421;28;20124;-54
2022/12/05 04:33:43;;;;;;;19.42;9.27;;;;;;;1.31;100.00;97201.69;5028914;28;20041;-58
2022/12/05 04:36:19;;;;;;;23.48;10.05;;;;;;;1.30;100.00;97206.19;5028367;28;20041;-58
2022/12/05 04:38:57;;;;;;;18.40;9.18;;;;;;;1.35;100.00;97207.44;5028822;28;20344;-59
2022/12/05 04:41:38;;;;;;;27.20;11.02;;;;;;;1.34;100.00;97216.47;5019038;28;20050;-57
2022/12/05 04:44:09;;;;;;;27.98;10.07;;;;;;;1.39;100.00;97216.72;5008630;28;20704;-58
2022/12/05 04:46:38;;;;;;;25.23;10.97;;;;;;;1.42;100.00;97217.16;5008380;28;20497;-58
2022/12/05 04:49:08;;;;;;;24.55;10.75;;;;;;;1.44;100.00;97214.28;5015828;28;20302;-57
2022/12/05 04:51:37;;;;;;;23.95;10.35;;;;;;;1.53;100.00;97212.28;5027415;28;20675;-58
2022/12/05 04:54:14;;;;;;;25.75;10.60;;;;;;;1.49;100.00;97203.84;5028532;28;20117;-59
2022/12/05 04:56:42;;;;;;;26.15;11.02;;;;;;;1.49;100.00;97203.00;5028359;28;20437;-59
2022/12/05 04:59:09;;;;;;;24.92;10.32;;;;;;;1.55;100.00;97207.56;5027622;28;20464;-58
2022/12/05 05:01:41;;;;;;;23.00;10.20;;;;;;;1.58;100.00;97207.16;5027416;28;20092;-56
2022/12/05 05:04:15;;;;;;;22.40;9.65;;;;;;;1.57;100.00;97205.53;5028049;28;20041;-58
2022/12/05 05:06:42;;;;;;;25.70;9.80;;;;;;;1.51;100.00;97212.47;5027984;28;20469;-57
2022/12/05 05:09:10;;;;;;;23.50;10.43;;;;;;;1.42;100.00;97225.16;5027777;28;20079;-58
2022/12/05 05:11:37;;;;;;;24.42;10.05;;;;;;;1.40;100.00;97229.84;5016997;28;20585;-56
2022/12/05 05:14:04;;;;;;;22.00;9.90;;;;;;;1.38;100.00;97223.91;5007728;28;20417;-58
2022/12/05 05:16:37;;;;;;;22.80;9.27;;;;;;;1.45;100.00;97233.78;5007958;28;20502;-56
2022/12/05 05:19:05;;;;;;;24.80;9.60;;;;;;;1.44;100.00;97240.97;5015404;28;20037;-56
2022/12/05 05:21:37;;;;;;;26.17;10.32;;;;;;;1.39;100.00;97230.03;5027088;28;20041;-58
2022/12/05 05:24:05;;;;;;;25.88;9.65;;;;;;;1.42;100.00;97225.16;5028142;28;20048;-57
2022/12/05 05:26:39;;;;;;;21.80;10.10;;;;;;;1.46;100.00;97224.75;5027090;28;20045;-59
2022/12/05 05:29:06;;;;;;;21.17;10.18;;;;;;;1.53;100.00;97229.13;5026589;28;20049;-58
2022/12/05 05:31:34;;;;;;;23.85;10.55;;;;;;;1.56;100.00;97234.03;5027407;28;20111;-56
2022/12/05 05:34:01;;;;;;;24.33;10.88;;;;;;;1.56;100.00;97228.69;5027040;28;20063;-58
2022/12/05 05:36:35;;;;;;;26.80;9.70;;;;;;;1.60;100.00;97234.47;5025928;28;20052;-56
2022/12/05 05:39:04;;;;;;;23.92;10.20;;;;;;;1.57;100.00;97232.19;5026640;28;20133;-57
2022/12/05 05:41:34;;;;;;;27.02;11.07;;;;;;;1.56;100.00;97227.91;5017104;28;20053;-57
2022/12/05 05:44:01;;;;;;;23.45;10.48;;;;;;;1.53;100.00;97234.44;5007481;28;20538;-57
2022/12/05 05:46:31;;;;;;;25.15;12.32;;;;;;;1.59;100.00;97248.84;5007287;28;20552;-58
2022/12/05 05:48:58;;;;;;;24.63;10.90;;;;;;;1.59;100.00;97250.69;5013556;28;20055;-57
2022/12/05 05:51:26;;;;;;;31.92;12.30;;;;;;;1.53;100.00;97252.31;5026582;28;20120;-56
2022/12/05 05:53:54;;;;;;;24.58;10.88;;;;;;;1.56;100.00;97255.38;5027174;28;20049;-57
2022/12/05 05:56:21;;;;;;;20.25;9.88;;;;;;;1.59;100.00;97256.03;5015633;28;20072;-58
2022/12/05 05:58:54;;;;;;;21.60;9.82;;;;;;;1.55;100.00;97260.94;5025095;28;20045;-57
2022/12/05 06:01:20;;;;;;;23.23;10.38;;;;;;;1.50;100.00;97264.19;5026749;28;20289;-57
2022/12/05 06:03:49;;;;;;;18.60;9.02;;;;;;;1.53;100.00;97276.31;5026232;28;20341;-57
2022/12/05 06:06:17;;;;;;;22.83;11.05;;;;;;;1.43;100.00;97274.00;5026568;28;20049;-58
2022/12/05 06:08:45;;;;;;;22.13;10.63;;;;;;;1.43;100.00;97272.16;5026625;28;20045;-59
2022/12/05 06:11:14;;;;;;;21.02;9.68;;;;;;;1.50;100.00;97277.53;5019124;28;20049;-56
2022/12/05 06:13:48;;;;;;;17.92;10.48;;;;;;;1.52;100.00;97269.34;5006859;28;20541;-59
2022/12/05 06:16:17;;;;;;;20.23;9.23;;;;;;;1.58;100.00;97279.22;5006709;28;20041;-58
2022/12/05 06:18:43;;;;;;;28.40;10.35;;;;;;;1.58;100.00;97270.41;5010653;28;20068;-56
2022/12/05 06:21:10;;;;;;;21.58;10.30;;;;;;;1.58;100.00;97265.06;5025685;28;20471;-56
2022/12/05 06:23:41;;;;;;;20.13;9.50;;;;;;;1.55;100.00;97264.41;5026770;28;20063;-57
2022/12/05 06:26:14;;;;;;;21.98;9.48;;;;;;;1.58;100.00;97262.41;5025789;28;20560;-59
2022/12/05 06:28:43;;;;;;;20.73;9.30;;;;;;;1.68;100.00;97255.69;5026485;28;20465;-56
2022/12/05 06:31:12;;;;;;;20.30;10.32;;;;;;;1.71;100.00;97258.97;5025960;28;20056;-56
2022/12/05 06:33:38;;;;;;;21.98;9.75;;;;;;;1.68;100.00;97255.69;5026447;28;20376;-57
2022/12/05 06:36:13;;;;;;;16.77;9.15;;;;;;;1.66;100.00;97267.56;5026730;28;20504;-57
2022/12/05 06:38:40;;;;;;;26.67;14.35;;;;;;;1.62;100.00;97277.00;5026143;28;20413;-57
2022/12/05 06:41:15;;;;;;;20.20;9.80;;;;;;;1.28;100.00;97309.63;5019374;28;20245;-59
2022/12/05 06:43:42;;;;;;;21.70;9.02;;;;;;;1.20;100.00;97307.09;5014821;28;20064;-59
2022/12/05 06:46:11;;;;;;;22.80;10.93;;;;;;;1.05;100.00;97307.16;5026166;28;20095;-56
2022/12/05 06:48:38;;;;;;;24.75;11.05;;;;;;;1.03;100.00;97323.34;5026808;28;20045;-55
2022/12/05 06:51:07;;;;;;;25.83;11.38;;;;;;;1.08;100.00;97322.78;5025448;28;20124;-56
2022/12/05 06:53:34;;;;;;;22.73;11.38;;;;;;;1.21;100.00;97323.94;5024751;28;20049;-58
2022/12/05 06:56:03;;;;;;;23.70;11.70;;;;;;;1.28;100.00;97317.63;5025395;28;20045;-56
2022/12/05 06:58:30;;;;;;;21.20;11.10;;;;;;;1.41;100.00;97318.75;5025604;28;20089;-54
2022/12/05 07:03:47;;;;;;;18.80;9.43;;;;;;;1.58;100.00;97316.56;5026084;28;20045;-58
2022/12/05 07:06:14;;;;;;;;;;;;;;;1.66;100.00;97311.09;5026511;28;20044;-54
2022/12/05 07:08:41;;;;;;;17.83;8.35;;;;;;;1.55;100.00;97322.34;5026050;28;19928;-57
2022/12/05 07:11:08;;;;;;;17.05;8.82;;;;;;;1.63;100.00;97319.50;5019277;28;20221;-56
2022/12/05 07:13:34;;;;;;;17.65;8.30;;;;;;;1.79;100.00;97314.84;5006105;28;20038;-57
2022/12/05 07:16:01;;;;;;;15.98;8.70;;;;;;;1.70;100.00;97311.53;5006603;28;20149;-55
2022/12/05 07:18:27;;;;;;;16.58;8.77;;;;;;;1.63;100.00;97316.84;5007965;28;20129;-58
2022/12/05 07:20:56;;;;;;;18.05;7.80;;;;;;;1.60;100.00;97324.41;5025284;28;20103;-58
2022/12/05 07:23:41;;;;;;;18.40;8.85;;;;;;;1.61;100.00;97323.38;5021223;28;20500;-58
2022/12/05 07:26:09;;;;;;;17.90;9.27;;;;;;;1.61;100.00;97323.38;5012053;28;20041;-56
2022/12/05 07:28:36;;;;;;;20.63;9.15;;;;;;;1.50;100.00;97316.72;5023312;28;20107;-59
2022/12/05 07:31:04;;;;;;;17.20;9.95;;;;;;;1.48;100.00;97342.81;5018426;28;20057;-56
2022/12/05 07:33:31;;;;;;;18.88;9.57;;;;;;;1.40;100.00;97344.59;5019330;28;20042;-57
2022/12/05 07:36:07;;;;;;;18.98;9.30;;;;;;;1.40;100.00;97344.59;5009653;28;20049;-59
2022/12/05 07:38:34;;;;;;;22.05;11.48;;;;;;;1.36;100.00;97340.66;5021069;28;20045;-58
2022/12/05 07:41:08;;;;;;;26.08;12.13;;;;;;;1.43;100.00;97348.69;5010554;28;20108;-57
2022/12/05 07:43:40;;;;;;;22.45;11.20;;;;;;;1.47;100.00;97355.31;5005140;28;20046;-59
2022/12/05 07:46:10;;;;;;;18.73;9.68;;;;;;;1.50;100.00;97354.94;5018193;28;20124;-55
2022/12/05 07:48:38;;;;;;;18.20;9.07;;;;;;;1.59;100.00;97357.44;5010930;28;20042;-58
2022/12/05 07:51:06;;;;;;;17.65;8.98;;;;;;;1.64;100.00;97352.34;5018506;28;20352;-55
2022/12/05 07:53:33;;;;;;;16.80;7.22;;;;;;;1.67;100.00;97346.63;5031918;28;20107;-58
2022/12/05 07:56:01;;;;;;;18.60;8.75;;;;;;;1.76;100.00;97336.59;5027330;28;20046;-54
2022/12/05 07:58:28;;;;;;;18.92;8.95;;;;;;;1.84;100.00;97349.00;5027574;28;20045;-55
2022/12/05 08:00:55;;;;;;;15.88;8.48;;;;;;;1.88;100.00;97345.72;5018822;28;20125;-56
2022/12/05 08:03:22;;;;;;;19.10;9.43;;;;;;;1.98;100.00;97352.56;5021234;28;20061;-57
2022/12/05 08:05:48;;;;;;;16.58;8.73;;;;;;;2.00;100.00;97347.84;5021509;28;20384;-55
2022/12/05 08:08:15;;;;;;;14.65;8.10;;;;;;;2.08;100.00;97355.69;5027029;28;20053;-58
2022/12/05 08:10:41;;;;;;;15.27;8.43;;;;;;;2.13;100.00;97361.25;5024060;28;20057;-57
2022/12/05 08:13:08;;;;;;;18.70;8.25;;;;;;;2.03;100.00;97366.97;5020900;28;20049;-56
2022/12/05 08:15:35;;;;;;;14.50;7.82;;;;;;;2.02;100.00;97370.66;5027090;28;20621;-58
2022/12/05 08:18:02;;;;;;;14.35;8.20;;;;;;;2.02;100.00;97367.16;5025820;28;20049;-58
2022/12/05 08:20:29;;;;;;;17.38;8.35;;;;;;;2.04;100.00;97362.44;5028233;28;20033;-57
2022/12/05 08:22:56;;;;;;;15.00;8.40;;;;;;;2.04;100.00;97362.44;5030906;28;20067;-58
2022/12/05 08:25:22;;;;;;;17.80;8.82;;;;;;;2.02;100.00;97361.81;5021059;28;20049;-57
2022/12/05 08:27:49;;;;;;;14.38;7.63;;;;;;;2.02;100.00;97353.78;5024982;28;20524;-58
2022/12/05 08:30:15;;;;;;;15.13;7.80;;;;;;;2.02;100.00;97354.63;5025290;28;20116;-57
2022/12/05 08:32:42;;;;;;;16.73;8.95;;;;;;;2.03;100.00;97353.59;5020582;28;20056;-57
2022/12/05 08:35:09;;;;;;;15.48;8.10;;;;;;;2.20;100.00;97364.78;5026044;28;20037;-59
2022/12/05 08:37:35;;;;;;;16.13;8.75;;;;;;;2.30;100.00;97375.13;5026639;28;20049;-59
2022/12/05 08:40:03;;;;;;;15.45;8.77;;;;;;;2.38;100.00;97382.13;5016287;28;20049;-57
2022/12/05 08:42:29;;;;;;;14.02;8.13;;;;;;;2.38;100.00;97387.47;5007807;28;20509;-58
2022/12/05 08:44:56;;;;;;;15.90;8.77;;;;;;;2.37;100.00;97380.50;5026353;28;20432;-58
2022/12/05 08:47:22;;;;;;;16.40;8.68;;;;;;;2.45;100.00;97393.69;5026319;28;20125;-59
2022/12/05 08:49:49;;;;;;;15.80;8.25;;;;;;;2.50;100.00;97403.75;5026738;28;20411;-58
2022/12/05 08:52:15;;;;;;;14.40;7.97;;;;;;;2.50;100.00;97397.63;5026275;28;20041;-59
2022/12/05 08:54:42;;;;;;;15.93;8.38;;;;;;;2.55;100.00;97397.84;5026265;28;20063;-57
2022/12/05 08:57:08;;;;;;;21.13;9.20;;;;;;;2.57;100.00;97409.13;5016484;28;20295;-58
2022/12/05 08:59:35;;;;;;;14.88;7.97;;;;;;;2.60;100.00;97412.25;5026145;28;20072;-59
2022/12/05 09:02:01;;;;;;;14.90;7.60;;;;;;;2.69;100.00;97423.59;5025613;28;20049;-59
2022/12/05 09:04:28;;;;;;;12.77;7.22;;;;;;;2.77;100.00;97413.75;5024670;28;20505;-58
2022/12/05 09:06:54;;;;;;;14.98;7.65;;;;;;;2.80;100.00;97422.19;5025932;28;20448;-59
2022/12/05 09:09:20;;;;;;;15.27;7.30;;;;;;;2.82;100.00;97419.31;5026239;28;20310;-58
2022/12/05 09:11:49;;;;;;;12.07;7.25;;;;;;;2.83;100.00;97428.97;5015106;28;20133;-59
2022/12/05 09:14:17;;;;;;;13.10;7.68;;;;;;;2.82;100.00;97430.00;5025852;28;20050;-57
2022/12/05 09:16:45;;;;;;;12.63;7.32;;;;;;;2.80;100.00;97432.88;5028329;28;20057;-58
2022/12/05 09:19:15;;;;;;;14.43;7.05;;;;;;;2.82;100.00;97430.00;5036920;28;20050;-57
2022/12/05 09:21:42;;;;;;;13.32;7.30;;;;;;;2.80;100.00;97432.88;5025242;28;20136;-57
2022/12/05 09:24:10;;;;;;;13.63;6.93;;;;;;;2.96;100.00;97434.41;5025612;28;20041;-59
2022/12/05 09:26:38;;;;;;;11.13;6.75;;;;;;;2.93;100.00;97431.28;5026947;28;20517;-55
2022/12/05 09:29:05;;;;;;;10.18;6.05;;;;;;;2.96;100.00;97426.38;5036718;28;20056;-58
2022/12/05 09:31:37;;;;;;;10.82;6.55;;;;;;;3.03;100.00;97428.22;5022705;28;20041;-57
2022/12/05 09:34:04;;;;;;;11.18;5.95;;;;;;;3.10;100.00;97442.44;5025207;28;20227;-59
2022/12/05 09:36:31;;;;;;;11.40;6.25;;;;;;;3.07;100.00;97438.34;5025266;28;20477;-58
2022/12/05 09:39:04;;;;;;;12.27;6.13;;;;;;;3.15;100.00;97442.66;5025871;28;20049;-58
2022/12/05 09:44:39;;;;;;;11.50;6.63;;;;;;;3.40;100.00;97462.69;5025473;28;20049;-57
2022/12/05 09:47:30;;;;;;;12.20;6.35;;;;;;;3.47;100.00;97453.63;5014577;28;20049;-58
2022/12/05 09:50:27;;;;;;;10.45;6.47;;;;;;;3.54;100.00;97450.13;5025773;28;20107;-57
2022/12/05 09:53:12;;;;;;;11.73;5.65;;;;;;;3.62;100.00;97444.59;5014374;28;20053;-59
2022/12/05 09:55:44;;;;;;;11.82;5.72;;;;;;;3.69;100.00;97449.94;5024766;28;20041;-58
2022/12/05 09:58:25;;;;;;;11.25;6.30;;;;;;;3.50;100.00;97450.53;5015477;28;20164;-59
2022/12/05 10:01:15;;;;;;;11.23;6.65;;;;;;;3.51;100.00;97454.84;5024933;28;20402;-59
2022/12/05 10:03:47;;;;;;;10.85;6.50;;;;;;;3.57;100.00;97455.91;5022664;28;20486;-60
2022/12/05 10:06:20;;;;;;;13.98;6.72;;;;;;;3.51;100.00;97454.84;5020203;28;20129;-57
2022/12/05 10:09:05;;;;;;;10.68;6.93;;;;;;;3.63;100.00;97456.94;5025603;28;20107;-57
2022/12/05 10:11:38;;;;;;;12.93;6.90;;;;;;;3.62;100.00;97457.97;5014662;28;20073;-58
2022/12/05 10:14:14;;;;;;;12.18;6.28;;;;;;;3.75;100.00;97457.97;5021915;28;20058;-58
2022/12/05 10:16:51;;;;;;;9.10;6.28;;;;;;;3.81;100.00;97458.19;5024181;28;20531;-57
2022/12/05 10:19:24;;;;;;;10.98;6.72;;;;;;;3.57;100.00;97463.94;5013954;28;20092;-56
2022/12/05 10:21:57;;;;;;;11.60;6.35;;;;;;;3.58;100.00;97454.88;5023507;28;20627;-57
2022/12/05 10:24:45;;;;;;;10.85;5.85;;;;;;;3.52;100.00;97463.72;5029153;28;20079;-56
2022/12/05 10:27:20;;;;;;;11.15;6.10;;;;;;;3.41;100.00;97457.13;5023695;28;20386;-59
2022/12/05 10:29:58;;;;;;;13.32;6.90;;;;;;;3.52;100.00;97458.38;5024505;28;20069;-57
2022/12/05 10:32:35;;;;;;;9.10;5.50;;;;;;;3.43;100.00;97452.38;5023993;28;20045;-58
2022/12/05 10:35:37;;;;;;;10.35;5.68;;;;;;;3.54;100.00;97452.81;5024137;28;20064;-57
2022/12/05 10:38:05;;;;;;;10.63;5.55;;;;;;;3.65;100.00;97438.81;5012546;28;20480;-58
2022/12/05 10:40:38;;;;;;;10.25;6.05;;;;;;;3.67;100.00;97446.63;5029979;28;20479;-58
2022/12/05 10:43:07;;;;;;;10.80;5.20;;;;;;;3.55;100.00;97457.13;5020361;28;20584;-56
2022/12/05 10:45:42;;;;;;;10.05;5.55;;;;;;;3.47;100.00;97445.59;5022566;28;20052;-56
2022/12/05 10:48:11;;;;;;;10.07;5.25;;;;;;;3.54;100.00;97453.63;5019445;28;20513;-56
2022/12/05 10:50:39;;;;;;;10.77;5.85;;;;;;;3.33;100.00;97442.09;5023884;28;20584;-57
2022/12/05 10:53:05;;;;;;;10.55;6.18;;;;;;;3.29;100.00;97435.50;5037083;28;20144;-56
2022/12/05 10:55:39;;;;;;;10.00;5.65;;;;;;;3.39;100.00;97432.41;5023866;28;20041;-57
2022/12/05 10:58:15;;;;;;;12.15;5.60;;;;;;;3.35;100.00;97436.50;5031030;28;20147;-58
2022/12/05 11:00:47;;;;;;;10.55;4.88;;;;;;;3.36;100.00;97430.94;5023891;28;20217;-57
2022/12/05 11:03:25;;;;;;;8.88;5.53;;;;;;;3.41;100.00;97427.69;5037220;28;20061;-58
2022/12/05 11:05:54;;;;;;;9.80;5.35;;;;;;;3.50;100.00;97420.25;5036836;28;20041;-56
2022/12/05 11:08:30;;;;;;;8.68;4.78;;;;;;;3.58;100.00;97422.72;5024010;28;20049;-56
2022/12/05 11:11:20;;;;;;;6.72;3.85;;;;;;;3.75;100.00;97428.50;5020794;28;20045;-55
2022/12/05 11:13:57;;;;;;;8.13;4.55;;;;;;;3.75;100.00;97422.31;5023914;28;20464;-55
2022/12/05 11:16:36;;;;;;;8.30;5.22;;;;;;;3.85;100.00;97428.09;5012079;28;20073;-56
2022/12/05 11:19:26;;;;;;;8.40;4.63;;;;;;;3.95;100.00;97429.53;5023085;28;20049;-57
2022/12/05 11:21:53;;;;;;;7.93;4.85;;;;;;;4.13;100.00;97427.03;5021552;28;20124;-57
2022/12/05 11:24:30;;;;;;;7.75;4.68;;;;;;;4.31;100.00;97424.72;5023434;28;20140;-55
2022/12/05 11:27:17;;;;;;;7.32;3.80;;;;;;;4.33;98.45;97425.34;5023440;28;20040;-59
2022/12/05 11:29:53;;;;;;;8.18;4.35;;;;;;;4.36;99.74;97428.44;5026676;28;20144;-57
2022/12/05 11:32:32;;;;;;;7.28;3.83;;;;;;;4.35;99.28;97417.91;5026466;28;20095;-55
2022/12/05 11:35:10;;;;;;;6.85;4.10;;;;;;;4.20;100.00;97421.66;5027416;28;20269;-57
2022/12/05 11:37:57;;;;;;;9.43;4.63;;;;;;;4.02;100.00;97411.59;5027771;28;20076;-57
2022/12/05 11:40:29;;;;;;;7.18;4.07;;;;;;;4.08;100.00;97410.75;5026563;28;20045;-55
2022/12/05 11:43:09;;;;;;;9.55;4.05;;;;;;;4.16;100.00;97410.53;5026143;28;20504;-57
2022/12/05 11:45:44;;;;;;;7.38;4.15;;;;;;;4.27;99.13;97418.94;5036933;28;20069;-53
2022/12/05 11:48:25;;;;;;;6.35;3.95;;;;;;;4.21;100.00;97420.63;5031894;28;20052;-59
2022/12/05 11:51:30;;;;;;;9.07;4.80;;;;;;;4.15;100.00;97426.81;5020816;28;20408;-57
2022/12/05 11:54:22;;;;;;;8.70;4.47;;;;;;;4.21;100.00;97420.63;5027123;28;20112;-59
2022/12/05 11:57:24;;;;;;;7.82;3.97;;;;;;;4.50;100.00;97413.09;5016783;28;20049;-55
2022/12/05 12:00:20;;;;;;;7.75;4.38;;;;;;;4.55;98.13;97410.63;5015341;28;20049;-56